Terminal Aerodrome Forecast
Issued by NWS Northern Indiana

Home | Current Version | Previous Version | Text Only | Print | Product List | Glossary Off
Versions: 1 2 3 4 5 6 7 8 9 10 11 12 13 14 15 16 17

091
FTUS43 KIWX 282339
TAFFWA
TAF
KFWA 282339Z 2900/2924 14009KT P6SM -SHRA SCT060 OVC110
     FM290300 07009KT P6SM VCSH OVC060
     FM290600 04006KT P6SM OVC020
     FM291500 05011KT 5SM -SHRA BR OVC015=

USA.gov is the U.S. government's official web portal to all federal, state and local government web resources and services.